AEROCLUB DE PEZENAS
AEROPORT DE BEZIERS CAP D'AGDE
34420 PORTIRAGNES
TEL: 04.67.01.57.94
contact@aeroclub-pezenas.com
WINDOW MODE | FULLSCREEN MODE
2017/06/27 18:30 LFMU 271830Z AUTO 15005KT 110V260 9999 1700 TS BKN013/// BKN019/// ///CB 24/21 Q1005 TEMPO VRB30G45KT 0200 TSGR FG SQ BKN003CB
DOCUMENTS OFFICIELS

REGLEMENT INTERIEUR STATUTS AGO 28/06/2015 COMPTE RENDU DU COMMITE DIRECTEUR - 03/04/2016